Time;durP1;ratioP1;P1;durP2;ratioP2;P2;SDS_P1;SDS_P2;PMS_P1;PMS_P2;Temp;Humidity;BMP_temperature;BMP_pressure;BME280_temperature;BME280_humidity;BME280_pressure;Samples;Min_cycle;Max_cycle;Signal;HPM_P1;HPM_P2
2022/02/08 00:00:28;;;;;;;8.63;2.42;;;;;;;;;;4974352;28;20109;-67
2022/02/08 00:02:56;;;;;;;8.80;2.75;;;;;;;;;;4973685;28;20047;-67
2022/02/08 00:05:25;;;;;;;9.35;2.20;;;;;;;;;;4975986;28;20046;-67
2022/02/08 00:07:54;;;;;;;7.00;2.78;;;;;;;;;;4976984;28;20101;-67
2022/02/08 00:10:21;;;;;;;10.00;2.53;;;;;;;;;;4974819;28;20556;-67
2022/02/08 00:12:47;;;;;;;6.32;2.20;;;;;;;;;;4974697;28;20105;-67
2022/02/08 00:15:14;;;;;;;6.00;2.80;;;;;;;;;;4974705;28;20121;-68
2022/02/08 00:17:41;;;;;;;10.35;2.90;;;;;;;;;;4974792;28;20055;-67
2022/02/08 00:20:08;;;;;;;4.95;2.47;;;;;;;;;;4974538;28;20047;-68
2022/02/08 00:22:35;;;;;;;5.53;2.38;;;;;;;;;;4974450;28;20525;-67
2022/02/08 00:25:03;;;;;;;9.52;2.20;;;;;;;;;;4974442;28;20090;-67
2022/02/08 00:27:29;;;;;;;12.20;2.67;;;;;;;;;;4941681;28;20051;-68
2022/02/08 00:29:56;;;;;;;5.88;2.15;;;;;;;;;;4974635;28;20047;-67
2022/02/08 00:32:23;;;;;;;10.43;2.25;;;;;;;;;;4974231;28;20426;-68
2022/02/08 00:34:49;;;;;;;5.47;1.95;;;;;;;;;;4974332;28;20054;-68
2022/02/08 00:37:17;;;;;;;7.20;2.33;;;;;;;;;;4974068;28;20050;-68
2022/02/08 00:39:44;;;;;;;4.72;2.30;;;;;;;;;;4974155;28;20090;-68
2022/02/08 00:42:11;;;;;;;9.95;2.63;;;;;;;;;;4974039;28;20502;-68
2022/02/08 00:44:50;;;;;;;3.47;2.15;;;;;;;;;;4974268;28;20050;-67
2022/02/08 00:49:52;;;;;;;7.03;2.33;;;;;;;;;;4974215;28;20561;-68
2022/02/08 00:52:19;;;;;;;8.38;2.10;;;;;;;;;;4973661;28;20113;-67
2022/02/08 00:54:47;;;;;;;6.75;2.33;;;;;;;;;;4973926;28;20105;-67
2022/02/08 00:57:14;;;;;;;8.25;2.45;;;;;;;;;;4973636;28;20490;-68
2022/02/08 00:59:41;;;;;;;6.72;2.15;;;;;;;;;;4973965;28;20136;-68
2022/02/08 01:02:08;;;;;;;8.38;2.95;;;;;;;;;;4973654;28;20477;-68
2022/02/08 01:04:35;;;;;;;8.30;2.10;;;;;;;;;;4973815;28;20055;-68
2022/02/08 01:07:04;;;;;;;7.22;2.38;;;;;;;;;;4973373;28;20117;-68
2022/02/08 01:12:06;;;;;;;4.43;1.80;;;;;;;;;;4973365;28;20047;-67
2022/02/08 01:14:38;;;;;;;6.93;1.77;;;;;;;;;;4973242;28;20490;-67
2022/02/08 01:17:06;;;;;;;6.20;2.30;;;;;;;;;;4973425;28;20050;-68
2022/02/08 01:19:33;;;;;;;4.03;2.53;;;;;;;;;;4973593;28;20050;-67
2022/02/08 01:22:00;;;;;;;4.43;1.67;;;;;;;;;;4973175;28;20425;-67
2022/02/08 01:24:27;;;;;;;10.27;2.10;;;;;;;;;;4973494;28;20105;-67
2022/02/08 01:27:02;;;;;;;6.13;1.83;;;;;;;;;;4973367;28;20284;-67
2022/02/08 01:30:26;;;;;;;7.88;2.72;;;;;;;;;;4973581;28;20566;-67
2022/02/08 01:37:49;;;;;;;9.13;2.05;;;;;;;;;;4973182;28;20054;-68
2022/02/08 01:40:46;;;;;;;4.43;1.70;;;;;;;;;;4973154;28;20054;-67
2022/02/08 01:48:45;;;;;;;7.20;2.00;;;;;;;;;;4972965;28;20054;-68
2022/02/08 01:51:12;;;;;;;4.05;1.55;;;;;;;;;;4973404;28;20109;-68
2022/02/08 01:53:38;;;;;;;9.57;2.28;;;;;;;;;;4972951;28;20550;-68
2022/02/08 01:56:05;;;;;;;5.05;1.63;;;;;;;;;;4973038;28;20097;-68
2022/02/08 01:58:32;;;;;;;8.10;1.42;;;;;;;;;;4955992;28;20054;-69
2022/02/08 02:00:58;;;;;;;7.70;1.98;;;;;;;;;;4972899;28;20078;-68
2022/02/08 02:03:25;;;;;;;10.07;1.77;;;;;;;;;;4972654;28;20051;-68
2022/02/08 02:05:54;;;;;;;4.45;1.50;;;;;;;;;;4973224;28;20105;-67
2022/02/08 02:08:21;;;;;;;5.38;1.80;;;;;;;;;;4973007;28;20502;-67
2022/02/08 02:10:48;;;;;;;6.25;1.90;;;;;;;;;;4972997;28;20532;-67
2022/02/08 02:13:38;;;;;;;5.07;1.60;;;;;;;;;;4972713;28;20101;-67
2022/02/08 02:16:04;;;;;;;6.35;1.35;;;;;;;;;;4972366;28;20051;-67
2022/02/08 02:18:31;;;;;;;6.82;1.90;;;;;;;;;;4955722;28;20086;-67
2022/02/08 02:20:57;;;;;;;8.45;2.08;;;;;;;;;;4972621;28;20058;-67
2022/02/08 02:23:24;;;;;;;8.15;1.52;;;;;;;;;;4971484;28;20105;-68
2022/02/08 02:25:51;;;;;;;5.43;1.52;;;;;;;;;;4974552;28;20429;-67
2022/02/08 02:28:17;;;;;;;6.10;1.42;;;;;;;;;;4976497;28;20054;-68
2022/02/08 02:30:44;;;;;;;5.68;1.80;;;;;;;;;;4976826;28;20101;-67
2022/02/08 02:33:11;;;;;;;9.68;1.98;;;;;;;;;;4976828;28;20050;-68
2022/02/08 02:35:38;;;;;;;7.75;1.63;;;;;;;;;;4976491;28;20560;-68
2022/02/08 02:38:05;;;;;;;7.68;1.95;;;;;;;;;;4976291;28;20086;-67
2022/02/08 02:40:32;;;;;;;5.32;2.03;;;;;;;;;;4976353;28;20125;-68
2022/02/08 02:43:00;;;;;;;9.52;1.60;;;;;;;;;;4975990;28;20051;-67
2022/02/08 02:45:27;;;;;;;9.48;1.55;;;;;;;;;;4976287;28;20537;-67
2022/02/08 02:47:54;;;;;;;3.38;1.70;;;;;;;;;;4976290;28;20059;-68
2022/02/08 02:50:22;;;;;;;7.25;1.30;;;;;;;;;;4975981;28;20097;-67
2022/02/08 02:52:48;;;;;;;3.90;1.20;;;;;;;;;;4976003;28;20078;-68
2022/02/08 02:55:16;;;;;;;6.93;1.65;;;;;;;;;;4976002;28;20051;-67
2022/02/08 02:57:45;;;;;;;6.75;1.70;;;;;;;;;;4976102;28;20202;-67
2022/02/08 03:00:15;;;;;;;6.93;1.45;;;;;;;;;;4975966;28;20085;-67
2022/02/08 03:02:54;;;;;;;4.75;1.42;;;;;;;;;;4976015;28;20105;-67
2022/02/08 03:18:47;;;;;;;7.80;2.60;;;;;;;;;;4989653;28;20054;-66
2022/02/08 03:21:14;;;;;;;7.20;2.00;;;;;;;;;;4994883;28;20050;-66
2022/02/08 03:23:41;;;;;;;4.75;1.23;;;;;;;;;;4977748;28;20120;-66
2022/02/08 03:26:08;;;;;;;9.00;1.30;;;;;;;;;;4993585;28;20050;-66
2022/02/08 03:28:35;;;;;;;7.05;1.50;;;;;;;;;;4977595;28;20070;-66
2022/02/08 03:31:02;;;;;;;3.30;1.38;;;;;;;;;;4977536;28;20128;-66
2022/02/08 03:33:28;;;;;;;6.53;1.35;;;;;;;;;;4961567;28;20129;-66
2022/02/08 03:35:56;;;;;;;4.80;1.38;;;;;;;;;;4994453;28;20062;-66
2022/02/08 03:38:30;;;;;;;4.22;1.00;;;;;;;;;;4977417;28;20186;-66
2022/02/08 03:40:57;;;;;;;4.32;1.27;;;;;;;;;;4978507;28;20077;-66
2022/02/08 03:45:55;;;;;;;5.47;1.13;;;;;;;;;;4993388;28;20108;-66
2022/02/08 03:48:24;;;;;;;5.65;1.25;;;;;;;;;;4973827;28;20109;-66
2022/02/08 03:51:15;;;;;;;5.22;1.20;;;;;;;;;;4958286;28;20047;-65
2022/02/08 03:53:44;;;;;;;7.35;1.40;;;;;;;;;;4973827;28;20085;-65
2022/02/08 03:56:14;;;;;;;6.82;1.48;;;;;;;;;;4958483;28;20495;-65
2022/02/08 03:58:41;;;;;;;6.85;1.48;;;;;;;;;;4957808;28;20129;-65
2022/02/08 04:01:43;;;;;;;5.57;2.08;;;;;;;;;;4957576;28;20047;-65
2022/02/08 04:06:48;;;;;;;6.00;1.20;;;;;;;;;;4979078;28;20050;-64
2022/02/08 04:09:17;;;;;;;3.88;1.05;;;;;;;;;;4994154;28;20062;-65
2022/02/08 04:11:57;;;;;;;6.95;1.50;;;;;;;;;;4977086;28;20120;-65
2022/02/08 04:20:16;;;;;;;7.00;1.38;;;;;;;;;;4994060;28;20093;-65
2022/02/08 04:33:54;;;;;;;6.43;1.75;;;;;;;;;;4993113;28;20501;-65
2022/02/08 04:39:16;;;;;;;5.70;1.38;;;;;;;;;;4990932;28;20050;-65
2022/02/08 04:41:50;;;;;;;6.18;2.30;;;;;;;;;;4976025;28;20073;-67
2022/02/08 04:44:31;;;;;;;3.72;1.40;;;;;;;;;;4993408;28;20046;-64
2022/02/08 04:49:24;;;;;;;6.75;1.40;;;;;;;;;;4992513;28;20568;-66
2022/02/08 04:52:01;;;;;;;4.65;1.20;;;;;;;;;;4992405;28;20058;-65
2022/02/08 04:54:36;;;;;;;4.88;1.10;;;;;;;;;;4993646;28;20054;-65
2022/02/08 05:43:27;;;;;;;6.88;1.48;;;;;;;;;;4932306;29;20107;-65
2022/02/08 05:48:28;;;;;;;6.35;1.40;;;;;;;;;;4992280;28;20108;-65
2022/02/08 05:51:17;;;;;;;4.88;1.17;;;;;;;;;;4960878;28;20093;-66
2022/02/08 05:53:45;;;;;;;7.13;1.35;;;;;;;;;;4992233;28;20124;-65
2022/02/08 05:56:19;;;;;;;8.82;1.65;;;;;;;;;;4991269;28;20054;-65
2022/02/08 05:58:47;;;;;;;6.30;1.58;;;;;;;;;;4959725;28;20109;-64
2022/02/08 06:01:15;;;;;;;6.13;1.30;;;;;;;;;;4990955;28;20046;-65
2022/02/08 06:03:41;;;;;;;6.93;1.40;;;;;;;;;;4992253;28;20050;-65
2022/02/08 06:06:08;;;;;;;5.72;1.48;;;;;;;;;;4975003;28;20079;-65
2022/02/08 06:08:35;;;;;;;11.07;2.15;;;;;;;;;;4975003;28;20046;-65
2022/02/08 06:11:12;;;;;;;8.95;1.70;;;;;;;;;;4974759;28;20046;-65
2022/02/08 06:13:39;;;;;;;7.53;1.88;;;;;;;;;;4992166;28;20054;-65
2022/02/08 06:16:11;;;;;;;6.85;1.65;;;;;;;;;;4992318;28;20549;-65
2022/02/08 06:18:37;;;;;;;8.07;1.70;;;;;;;;;;4992428;28;20104;-66
2022/02/08 06:21:04;;;;;;;5.85;1.17;;;;;;;;;;4992224;28;20452;-65
2022/02/08 06:23:30;;;;;;;7.72;1.50;;;;;;;;;;4992128;28;20053;-66
2022/02/08 06:25:57;;;;;;;7.60;2.40;;;;;;;;;;4991990;28;20054;-65
2022/02/08 06:28:24;;;;;;;6.47;1.30;;;;;;;;;;4990620;28;20105;-65
2022/02/08 06:30:52;;;;;;;7.88;1.30;;;;;;;;;;4974954;28;20480;-65
2022/02/08 06:33:19;;;;;;;6.38;2.15;;;;;;;;;;4991770;28;20077;-65
2022/02/08 06:35:46;;;;;;;8.77;1.88;;;;;;;;;;4991929;28;20050;-65
2022/02/08 06:38:15;;;;;;;7.55;2.10;;;;;;;;;;4991792;28;20108;-65
2022/02/08 06:40:44;;;;;;;7.03;1.70;;;;;;;;;;4991823;28;20046;-65
2022/02/08 06:43:11;;;;;;;12.23;2.05;;;;;;;;;;4985732;28;20054;-65
2022/02/08 06:45:38;;;;;;;7.35;2.05;;;;;;;;;;4972864;28;20049;-65
2022/02/08 06:48:05;;;;;;;5.22;1.75;;;;;;;;;;4989344;28;20082;-65
2022/02/08 06:50:31;;;;;;;7.82;1.63;;;;;;;;;;4982818;28;20042;-65
2022/02/08 06:52:58;;;;;;;7.22;1.80;;;;;;;;;;4981480;28;20047;-65
2022/02/08 06:55:26;;;;;;;9.07;2.13;;;;;;;;;;4971889;28;20054;-65
2022/02/08 06:58:08;;;;;;;12.23;2.10;;;;;;;;;;4986435;28;20051;-64
2022/02/08 07:00:41;;;;;;;9.27;2.10;;;;;;;;;;4975182;28;20047;-67
2022/02/08 07:03:10;;;;;;;8.25;2.72;;;;;;;;;;4975583;28;20064;-65
2022/02/08 07:05:37;;;;;;;5.47;1.70;;;;;;;;;;4989005;28;20050;-64
2022/02/08 07:08:04;;;;;;;6.07;1.70;;;;;;;;;;4972127;28;20054;-65
2022/02/08 07:10:32;;;;;;;9.88;2.17;;;;;;;;;;4989750;28;20471;-65
2022/02/08 07:12:59;;;;;;;8.90;1.75;;;;;;;;;;4992442;28;20092;-65
2022/02/08 07:15:26;;;;;;;6.45;1.88;;;;;;;;;;4975980;28;20489;-66
2022/02/08 07:17:53;;;;;;;7.90;1.48;;;;;;;;;;4992635;28;20054;-64
2022/02/08 07:20:19;;;;;;;6.00;1.70;;;;;;;;;;4975735;28;20102;-65
2022/02/08 07:22:46;;;;;;;5.18;1.55;;;;;;;;;;4993102;28;20054;-65
2022/02/08 07:25:13;;;;;;;8.35;1.85;;;;;;;;;;4975799;28;20109;-65
2022/02/08 07:27:40;;;;;;;8.32;2.40;;;;;;;;;;4992808;28;20055;-65
2022/02/08 07:30:13;;;;;;;6.15;1.83;;;;;;;;;;4991042;28;20113;-64
2022/02/08 07:32:41;;;;;;;6.22;1.65;;;;;;;;;;4991777;28;20046;-65
2022/02/08 07:43:01;;;;;;;5.65;1.50;;;;;;;;;;4992239;28;20050;-65
2022/02/08 07:45:27;;;;;;;7.20;1.92;;;;;;;;;;4975784;28;20081;-63
2022/02/08 07:47:55;;;;;;;7.53;1.63;;;;;;;;;;4992654;28;20050;-65
2022/02/08 07:50:24;;;;;;;3.55;1.42;;;;;;;;;;4992666;28;20054;-65
2022/02/08 07:52:51;;;;;;;9.38;1.88;;;;;;;;;;4991020;28;20058;-65
2022/02/08 07:55:19;;;;;;;4.72;1.45;;;;;;;;;;4991969;28;20078;-65
2022/02/08 07:57:46;;;;;;;11.10;1.98;;;;;;;;;;4988764;28;20054;-65
2022/02/08 08:00:13;;;;;;;5.78;2.10;;;;;;;;;;4979623;28;20149;-65
2022/02/08 08:02:40;;;;;;;4.75;1.73;;;;;;;;;;4950638;28;20502;-65
2022/02/08 08:05:08;;;;;;;8.48;1.83;;;;;;;;;;4965039;28;20138;-65
2022/02/08 08:07:34;;;;;;;11.20;1.70;;;;;;;;;;4981132;28;20484;-65
2022/02/08 08:10:03;;;;;;;9.30;1.58;;;;;;;;;;4977101;28;20268;-64
2022/02/08 08:12:30;;;;;;;6.75;1.60;;;;;;;;;;4979036;28;20485;-65
2022/02/08 08:14:59;;;;;;;6.78;1.77;;;;;;;;;;4980187;28;20458;-65
2022/02/08 08:19:54;;;;;;;7.90;1.65;;;;;;;;;;4979956;28;20046;-66
2022/02/08 08:22:21;;;;;;;9.85;1.73;;;;;;;;;;4978079;28;20046;-64
2022/02/08 08:24:49;;;;;;;7.75;1.63;;;;;;;;;;4944345;28;20054;-64
2022/02/08 08:27:15;;;;;;;10.77;1.67;;;;;;;;;;4958625;28;20069;-64
2022/02/08 08:29:42;;;;;;;12.68;2.28;;;;;;;;;;4978955;28;20050;-65
2022/02/08 08:32:09;;;;;;;7.07;1.65;;;;;;;;;;4977176;28;20039;-64
2022/02/08 08:34:36;;;;;;;6.28;1.50;;;;;;;;;;4978828;28;20116;-65
2022/02/08 08:37:04;;;;;;;8.15;1.70;;;;;;;;;;4986830;28;20054;-66
2022/02/08 08:39:46;;;;;;;8.15;2.33;;;;;;;;;;4961797;28;20117;-65
2022/02/08 08:50:10;;;;;;;7.80;1.80;;;;;;;;;;4978606;28;20049;-65
2022/02/08 08:52:42;;;;;;;7.95;1.40;;;;;;;;;;4976663;28;20051;-66
2022/02/08 08:55:09;;;;;;;10.23;1.77;;;;;;;;;;4963051;28;20054;-65
2022/02/08 08:57:36;;;;;;;9.95;2.30;;;;;;;;;;4980647;28;20709;-64
2022/02/08 09:00:05;;;;;;;9.82;1.83;;;;;;;;;;4912681;29;20055;-64
2022/02/08 09:02:33;;;;;;;6.45;1.50;;;;;;;;;;4939127;29;20525;-64
2022/02/08 09:05:02;;;;;;;7.55;3.13;;;;;;;;;;4940833;29;20055;-65
2022/02/08 09:07:31;;;;;;;8.52;1.58;;;;;;;;;;4925171;29;20047;-65
2022/02/08 09:10:01;;;;;;;6.47;1.25;;;;;;;;;;4951937;28;20047;-65
2022/02/08 09:23:13;;;;;;;8.75;1.58;;;;;;;;;;4922252;29;20083;-66
2022/02/08 09:26:00;;;;;;;9.98;1.90;;;;;;;;;;4951675;28;20055;-65
2022/02/08 09:31:05;;;;;;;13.93;2.83;;;;;;;;;;4926137;29;20082;-64
2022/02/08 09:33:31;;;;;;;4.38;1.30;;;;;;;;;;4937585;29;20051;-66
2022/02/08 09:35:58;;;;;;;9.05;2.33;;;;;;;;;;4920626;29;20490;-66
2022/02/08 09:38:29;;;;;;;8.80;1.63;;;;;;;;;;4938651;29;20564;-65
2022/02/08 09:40:58;;;;;;;6.75;1.15;;;;;;;;;;4966666;28;20051;-65
2022/02/08 09:43:24;;;;;;;11.30;1.70;;;;;;;;;;4942771;29;20047;-66
2022/02/08 09:45:51;;;;;;;6.60;1.67;;;;;;;;;;4939814;29;20059;-65
2022/02/08 09:48:26;;;;;;;9.75;1.90;;;;;;;;;;4938047;29;20063;-67
2022/02/08 09:50:53;;;;;;;12.27;1.95;;;;;;;;;;4939128;29;20593;-66
2022/02/08 09:53:30;;;;;;;7.28;1.98;;;;;;;;;;4942241;29;20051;-66
2022/02/08 09:55:56;;;;;;;5.50;1.42;;;;;;;;;;4926567;29;20052;-67
2022/02/08 09:58:23;;;;;;;11.10;2.35;;;;;;;;;;4941379;28;20051;-66
2022/02/08 10:00:49;;;;;;;4.90;1.80;;;;;;;;;;4953532;28;20047;-66
2022/02/08 10:03:17;;;;;;;10.35;2.03;;;;;;;;;;4951746;28;20071;-67
2022/02/08 10:05:46;;;;;;;5.95;1.77;;;;;;;;;;4941000;28;20056;-69
2022/02/08 10:08:14;;;;;;;7.93;1.45;;;;;;;;;;4940539;29;20109;-65
2022/02/08 10:10:43;;;;;;;6.63;1.20;;;;;;;;;;4921418;29;20051;-69
2022/02/08 10:13:56;;;;;;;5.80;1.38;;;;;;;;;;4976268;23;20086;-67
2022/02/08 10:20:09;;;;;;;6.68;1.60;;;;;;;;;;4944787;29;20047;-68
2022/02/08 10:22:09;;;;;;;6.18;1.23;;;;;;;;;;4941606;29;20557;-68
2022/02/08 10:24:37;;;;;;;10.65;1.38;;;;;;;;;;4941893;29;20052;-65
2022/02/08 10:38:45;;;;;;;4.03;1.25;;;;;;;;;;4941970;29;20105;-68
2022/02/08 10:41:23;;;;;;;7.25;1.55;;;;;;;;;;4924281;29;20110;-68
2022/02/08 10:44:07;;;;;;;10.27;1.70;;;;;;;;;;4942636;29;20055;-68
2022/02/08 10:46:35;;;;;;;7.32;2.05;;;;;;;;;;4923694;29;20098;-68
2022/02/08 10:49:06;;;;;;;6.93;1.65;;;;;;;;;;4944822;29;20056;-67
2022/02/08 10:51:44;;;;;;;5.95;1.58;;;;;;;;;;4943027;29;20052;-68
2022/02/08 10:54:30;;;;;;;6.22;1.60;;;;;;;;;;4948939;29;20098;-68
2022/02/08 10:57:09;;;;;;;6.53;1.48;;;;;;;;;;4948108;29;20422;-68
2022/02/08 10:59:42;;;;;;;9.00;2.17;;;;;;;;;;4944034;29;20059;-68
2022/02/08 11:02:18;;;;;;;;;;;;;;;;;;4941970;29;20051;-68
2022/02/08 11:07:40;;;;;;;5.60;1.52;;;;;;;;;;4943156;29;20056;-68
2022/02/08 11:11:04;;;;;;;7.63;1.45;;;;;;;;;;4944503;29;20114;-68
2022/02/08 11:20:32;;;;;;;4.38;1.20;;;;;;;;;;4943834;29;20471;-68
2022/02/08 11:23:30;;;;;;;8.25;1.42;;;;;;;;;;4941330;28;20528;-68
2022/02/08 11:25:58;;;;;;;8.80;1.95;;;;;;;;;;4947490;29;20462;-68
2022/02/08 11:28:34;;;;;;;3.85;1.30;;;;;;;;;;4942650;29;20051;-68
2022/02/08 11:44:50;;;;;;;6.07;1.30;;;;;;;;;;4946934;29;20183;-69
2022/02/08 11:47:49;;;;;;;6.57;1.38;;;;;;;;;;4932377;29;20581;-70
2022/02/08 11:56:14;;;;;;;4.60;1.17;;;;;;;;;;4950212;29;20503;-69
2022/02/08 11:59:00;;;;;;;4.75;1.60;;;;;;;;;;4944122;29;20083;-69
2022/02/08 12:02:01;;;;;;;8.48;1.38;;;;;;;;;;4960160;29;20051;-69
2022/02/08 12:32:03;;;;;;;4.78;0.80;;;;;;;;;;4962028;29;20051;-72
2022/02/08 12:54:14;;;;;;;5.13;1.10;;;;;;;;;;4947224;28;20056;-72
2022/02/08 14:05:03;;;;;;;5.93;1.95;;;;;;;;;;4942164;28;20130;-71
2022/02/08 14:07:04;;;;;;;8.20;3.00;;;;;;;;;;4939629;29;20059;-68
2022/02/08 14:30:55;;;;;;;2.13;1.10;;;;;;;;;;4945491;29;19922;-67
2022/02/08 15:07:13;;;;;;;2.92;0.93;;;;;;;;;;4943053;29;20063;-67
2022/02/08 15:08:59;;;;;;;3.85;0.60;;;;;;;;;;4939994;28;20204;-67
2022/02/08 15:11:42;;;;;;;2.60;0.60;;;;;;;;;;4942237;29;20067;-68
2022/02/08 15:14:08;;;;;;;4.55;1.00;;;;;;;;;;4942461;29;20047;-69
2022/02/08 15:16:36;;;;;;;3.10;0.77;;;;;;;;;;4942351;29;20537;-69
2022/02/08 15:19:03;;;;;;;2.13;0.85;;;;;;;;;;4925193;28;20058;-72
2022/02/08 15:21:34;;;;;;;2.70;1.05;;;;;;;;;;4966310;28;20135;-72
2022/02/08 15:24:02;;;;;;;3.47;1.25;;;;;;;;;;4965908;28;20043;-71
2022/02/08 15:26:29;;;;;;;3.80;0.75;;;;;;;;;;4960493;28;20097;-70
2022/02/08 15:29:02;;;;;;;3.90;1.52;;;;;;;;;;4973466;28;20502;-68
2022/02/08 15:31:30;;;;;;;3.22;1.00;;;;;;;;;;4963962;28;20332;-70
2022/02/08 15:33:59;;;;;;;3.72;1.13;;;;;;;;;;4961157;28;20051;-71
2022/02/08 15:36:27;;;;;;;1.13;0.57;;;;;;;;;;4964132;28;20055;-70
2022/02/08 15:38:58;;;;;;;2.90;0.85;;;;;;;;;;4962032;28;20055;-71
2022/02/08 15:41:25;;;;;;;3.33;1.40;;;;;;;;;;4968650;28;20047;-71
2022/02/08 15:43:53;;;;;;;4.50;0.85;;;;;;;;;;4965081;28;20681;-71
2022/02/08 15:46:24;;;;;;;0.98;0.45;;;;;;;;;;4962054;28;20087;-71
2022/02/08 15:48:54;;;;;;;4.95;0.65;;;;;;;;;;4963651;28;20122;-71
2022/02/08 16:05:06;;;;;;;3.22;0.90;;;;;;;;;;4962325;28;20090;-68
2022/02/08 16:07:10;;;;;;;4.38;1.42;;;;;;;;;;4963146;28;20055;-67
2022/02/08 16:47:35;;;;;;;2.50;1.13;;;;;;;;;;4962440;28;20074;-68
2022/02/08 16:55:28;;;;;;;3.35;1.30;;;;;;;;;;4954627;28;20047;-68
2022/02/08 17:00:30;;;;;;;2.70;1.08;;;;;;;;;;4976722;28;20134;-73
2022/02/08 17:03:12;;;;;;;2.72;1.17;;;;;;;;;;4957888;28;20164;-70
2022/02/08 17:05:39;;;;;;;3.67;1.30;;;;;;;;;;4966846;28;20057;-74
2022/02/08 17:08:10;;;;;;;3.42;1.10;;;;;;;;;;4942360;28;20051;-74
2022/02/08 17:10:42;;;;;;;4.03;2.28;;;;;;;;;;4954277;28;20422;-72
2022/02/08 17:13:27;;;;;;;5.47;2.35;;;;;;;;;;4960997;28;20051;-73
2022/02/08 17:16:38;;;;;;;7.15;1.45;;;;;;;;;;4958038;28;20388;-73
2022/02/08 17:45:57;;;;;;;9.05;3.40;;;;;;;;;;4966841;28;20348;-69
2022/02/08 17:48:24;;;;;;;10.30;4.63;;;;;;;;;;4971734;28;20592;-70
2022/02/08 17:50:52;;;;;;;5.90;2.72;;;;;;;;;;4957842;28;20050;-70
2022/02/08 17:53:19;;;;;;;4.63;2.00;;;;;;;;;;4944227;28;20503;-70
2022/02/08 17:55:45;;;;;;;5.32;2.13;;;;;;;;;;4956770;28;20668;-70
2022/02/08 17:58:15;;;;;;;5.38;1.95;;;;;;;;;;4957758;28;20051;-70
2022/02/08 18:00:42;;;;;;;4.65;2.83;;;;;;;;;;4961994;28;20114;-70
2022/02/08 18:03:12;;;;;;;5.95;3.25;;;;;;;;;;4961773;28;20506;-70
2022/02/08 18:05:40;;;;;;;6.25;3.70;;;;;;;;;;4963525;28;20509;-70
2022/02/08 18:08:09;;;;;;;10.73;4.07;;;;;;;;;;4954586;28;20085;-70
2022/02/08 18:10:37;;;;;;;8.02;3.60;;;;;;;;;;4951908;28;20055;-70
2022/02/08 18:13:08;;;;;;;8.10;4.22;;;;;;;;;;4961078;28;20050;-70
2022/02/08 18:15:35;;;;;;;7.30;3.90;;;;;;;;;;4962379;28;20568;-70
2022/02/08 18:18:08;;;;;;;5.78;3.88;;;;;;;;;;4958781;28;20055;-71
2022/02/08 18:20:46;;;;;;;7.05;4.35;;;;;;;;;;4962568;28;20117;-71
2022/02/08 18:23:34;;;;;;;10.20;4.22;;;;;;;;;;4972431;28;20548;-70
2022/02/08 18:28:49;;;;;;;11.93;6.20;;;;;;;;;;4942851;28;20059;-70
2022/02/08 19:07:07;;;;;;;19.30;3.65;;;;;;;;;;4960434;28;20047;-74
2022/02/08 19:09:48;;;;;;;5.07;2.13;;;;;;;;;;4961095;28;20497;-73
2022/02/08 19:12:22;;;;;;;5.68;2.42;;;;;;;;;;4947626;28;20065;-74
2022/02/08 19:20:42;;;;;;;8.60;2.22;;;;;;;;;;4974874;28;20046;-75
2022/02/08 19:23:09;;;;;;;8.20;2.33;;;;;;;;;;4961725;28;20054;-71
2022/02/08 19:25:36;;;;;;;9.20;1.85;;;;;;;;;;4964202;28;20133;-72
2022/02/08 19:28:05;;;;;;;9.30;2.47;;;;;;;;;;4946148;28;20047;-72
2022/02/08 19:30:31;;;;;;;7.63;2.38;;;;;;;;;;4963698;28;20057;-67
2022/02/08 19:32:58;;;;;;;7.15;1.83;;;;;;;;;;4965173;28;20055;-67
2022/02/08 19:35:25;;;;;;;5.78;1.80;;;;;;;;;;4958124;28;20063;-67
2022/02/08 19:37:51;;;;;;;5.72;1.90;;;;;;;;;;4962879;28;20046;-67
2022/02/08 19:40:18;;;;;;;11.82;2.40;;;;;;;;;;4959727;28;20414;-67
2022/02/08 19:42:44;;;;;;;6.47;2.35;;;;;;;;;;4976918;28;20052;-67
2022/02/08 19:45:29;;;;;;;5.93;1.98;;;;;;;;;;4956257;28;20411;-67
2022/02/08 19:47:55;;;;;;;6.82;2.33;;;;;;;;;;4963770;28;20054;-67
2022/02/08 19:50:22;;;;;;;6.43;2.35;;;;;;;;;;4963639;28;20047;-67
2022/02/08 19:52:50;;;;;;;5.57;2.22;;;;;;;;;;4963611;28;20047;-67
2022/02/08 19:58:21;;;;;;;8.18;2.22;;;;;;;;;;4960990;28;21151;-67
2022/02/08 20:01:06;;;;;;;5.40;2.17;;;;;;;;;;4965100;28;20097;-68
2022/02/08 20:03:41;;;;;;;10.63;2.70;;;;;;;;;;4958485;28;20493;-68
2022/02/08 20:06:08;;;;;;;7.60;3.15;;;;;;;;;;4956455;28;20105;-68
2022/02/08 20:08:35;;;;;;;19.63;4.40;;;;;;;;;;4961405;28;20105;-68
2022/02/08 20:11:02;;;;;;;8.55;3.13;;;;;;;;;;4956600;28;20099;-68
2022/02/08 20:13:29;;;;;;;5.10;2.13;;;;;;;;;;4976708;28;20052;-68
2022/02/08 20:15:57;;;;;;;9.25;2.67;;;;;;;;;;4960136;28;20043;-68
2022/02/08 20:18:25;;;;;;;9.30;3.92;;;;;;;;;;4963362;28;20059;-68
2022/02/08 20:20:52;;;;;;;11.43;3.05;;;;;;;;;;4962277;28;20054;-68
2022/02/08 20:23:20;;;;;;;5.80;2.80;;;;;;;;;;4960574;28;20072;-68
2022/02/08 20:25:50;;;;;;;6.38;3.40;;;;;;;;;;4965351;28;20047;-68
2022/02/08 20:28:36;;;;;;;12.15;3.50;;;;;;;;;;4958951;28;20059;-68
2022/02/08 20:31:03;;;;;;;9.18;3.92;;;;;;;;;;4974179;28;20577;-68
2022/02/08 20:33:30;;;;;;;12.00;3.55;;;;;;;;;;4961294;28;20222;-68
2022/02/08 20:35:57;;;;;;;9.05;3.35;;;;;;;;;;4958799;28;20102;-68
2022/02/08 20:38:25;;;;;;;9.02;3.75;;;;;;;;;;4965080;28;20109;-68
2022/02/08 20:40:54;;;;;;;9.48;3.60;;;;;;;;;;4973596;28;20490;-68
2022/02/08 20:43:21;;;;;;;7.90;3.08;;;;;;;;;;4964292;28;20054;-66
2022/02/08 20:45:49;;;;;;;9.40;3.38;;;;;;;;;;4975367;28;20490;-66
2022/02/08 20:48:16;;;;;;;13.32;4.10;;;;;;;;;;4961414;28;20109;-66
2022/02/08 20:50:45;;;;;;;14.30;4.45;;;;;;;;;;4977670;28;20118;-66
2022/02/08 20:53:15;;;;;;;10.45;4.20;;;;;;;;;;4960517;28;20230;-67
2022/02/08 20:55:49;;;;;;;12.65;4.72;;;;;;;;;;4954813;28;20046;-66
2022/02/08 20:58:26;;;;;;;12.20;4.75;;;;;;;;;;4956686;28;20106;-67
2022/02/08 21:00:53;;;;;;;7.85;4.20;;;;;;;;;;4972735;28;20101;-67
2022/02/08 21:06:12;;;;;;;14.68;4.63;;;;;;;;;;4959957;28;20047;-67
2022/02/08 21:08:37;;;;;;;9.77;4.32;;;;;;;;;;4976261;28;20050;-68
2022/02/08 21:11:04;;;;;;;7.00;4.15;;;;;;;;;;4960121;28;20055;-67
2022/02/08 21:13:44;;;;;;;13.27;3.92;;;;;;;;;;4942815;28;20059;-67
2022/02/08 21:16:13;;;;;;;8.90;3.92;;;;;;;;;;4963429;28;20055;-67
2022/02/08 21:18:40;;;;;;;10.55;3.17;;;;;;;;;;4951683;28;20481;-67
2022/02/08 21:21:07;;;;;;;9.35;3.85;;;;;;;;;;4957068;28;20050;-67
2022/02/08 21:23:37;;;;;;;11.25;3.10;;;;;;;;;;4958776;28;20047;-67
2022/02/08 21:26:05;;;;;;;10.63;2.95;;;;;;;;;;4963158;28;20047;-67
2022/02/08 21:31:29;;;;;;;6.47;2.80;;;;;;;;;;4960179;28;20113;-67
2022/02/08 21:49:56;;;;;;;4.68;2.42;;;;;;;;;;4953347;28;20047;-68
2022/02/08 21:52:31;;;;;;;3.53;1.70;;;;;;;;;;4952790;29;20047;-68
2022/02/08 21:55:01;;;;;;;4.22;1.60;;;;;;;;;;4967659;28;20071;-68
2022/02/08 21:57:52;;;;;;;2.78;1.50;;;;;;;;;;4952553;28;20055;-68
2022/02/08 22:00:14;;;;;;;5.45;1.40;;;;;;;;;;4953955;28;20059;-68
2022/02/08 22:02:41;;;;;;;2.08;1.15;;;;;;;;;;4953613;28;20095;-68
2022/02/08 22:05:08;;;;;;;3.95;1.27;;;;;;;;;;4952242;29;20102;-68
2022/02/08 22:07:35;;;;;;;1.83;1.27;;;;;;;;;;4952383;29;20050;-68
2022/02/08 22:19:07;;;;;;;5.85;2.35;;;;;;;;;;4988113;23;20047;-67
2022/02/08 22:21:50;;;;;;;3.92;2.20;;;;;;;;;;4973273;28;20098;-69
2022/02/08 22:29:44;;;;;;;9.52;2.15;;;;;;;;;;4973240;28;20490;-69
2022/02/08 22:32:18;;;;;;;3.38;2.08;;;;;;;;;;4972876;28;20046;-69
2022/02/08 22:34:47;;;;;;;4.07;1.60;;;;;;;;;;4973332;28;20106;-69
2022/02/08 22:37:20;;;;;;;2.83;2.00;;;;;;;;;;4987512;28;20050;-68
2022/02/08 22:39:52;;;;;;;;;;;;;;;;;;4972449;28;20062;-68
2022/02/08 22:42:27;;;;;;;7.25;1.60;;;;;;;;;;4973649;28;19926;-68
2022/02/08 22:44:56;;;;;;;5.25;1.50;;;;;;;;;;4977132;28;20117;-68
2022/02/08 22:47:23;;;;;;;3.22;1.45;;;;;;;;;;4976670;28;20050;-68
2022/02/08 22:49:50;;;;;;;3.63;1.58;;;;;;;;;;4976892;28;20497;-68
2022/02/08 22:52:17;;;;;;;6.07;1.90;;;;;;;;;;4976651;28;20055;-68
2022/02/08 22:54:44;;;;;;;3.85;1.70;;;;;;;;;;4976847;28;20051;-69
2022/02/08 22:57:12;;;;;;;4.35;1.52;;;;;;;;;;4976705;28;20088;-68
2022/02/08 22:59:39;;;;;;;4.50;1.50;;;;;;;;;;4976765;28;20102;-68
2022/02/08 23:02:07;;;;;;;3.80;1.90;;;;;;;;;;4976071;28;20199;-69
2022/02/08 23:04:34;;;;;;;5.18;1.70;;;;;;;;;;4976562;28;20055;-68
2022/02/08 23:07:03;;;;;;;7.32;2.20;;;;;;;;;;4991297;28;20109;-68
2022/02/08 23:09:41;;;;;;;10.20;2.47;;;;;;;;;;4976367;28;20054;-69
2022/02/08 23:14:49;;;;;;;4.95;2.13;;;;;;;;;;4975400;28;20051;-69
2022/02/08 23:39:00;;;;;;;3.33;1.50;;;;;;;;;;4976350;28;20050;-69
2022/02/08 23:41:28;;;;;;;2.58;1.27;;;;;;;;;;4975986;28;20050;-69
2022/02/08 23:43:56;;;;;;;3.30;1.63;;;;;;;;;;4975682;28;20050;-69
2022/02/08 23:46:23;;;;;;;2.03;1.40;;;;;;;;;;4975803;28;20047;-69
2022/02/08 23:51:26;;;;;;;4.45;1.40;;;;;;;;;;4956646;28;20118;-69
2022/02/08 23:53:59;;;;;;;5.05;1.85;;;;;;;;;;4955978;28;20059;-69
2022/02/08 23:56:41;;;;;;;3.83;1.77;;;;;;;;;;4956370;28;20142;-68
2022/02/08 23:59:12;;;;;;;5.40;2.10;;;;;;;;;;4962102;28;20093;-69
